createdAt,value
2023-03-12T00:01:59.892Z,101277.66
2023-03-12T00:04:27.248Z,101269.59
2023-03-12T00:06:53.921Z,101261.66
2023-03-12T00:09:20.371Z,101260.69
2023-03-12T00:11:46.896Z,101260.59
2023-03-12T00:14:13.446Z,101257.03
2023-03-12T00:16:40.262Z,101256.13
2023-03-12T00:19:06.791Z,101249.84
2023-03-12T00:21:33.318Z,101253.38
2023-03-12T00:23:59.765Z,101247.91
2023-03-12T00:26:26.221Z,101247.84
2023-03-12T00:28:53.592Z,101248.75
2023-03-12T00:31:27.557Z,101238.91
2023-03-12T00:33:56.027Z,101239.66
2023-03-12T00:36:26.740Z,101238.66
2023-03-12T00:38:54.053Z,101239.38
2023-03-12T00:41:21.703Z,101241.94
2023-03-12T00:43:49.479Z,101240.16
2023-03-12T00:46:15.932Z,101247.94
2023-03-12T00:48:43.163Z,101237.19
2023-03-12T00:51:10.149Z,101241.63
2023-03-12T00:53:36.874Z,101230.88
2023-03-12T00:56:05.172Z,101229.06
2023-03-12T00:58:32.240Z,101235.22
2023-03-12T01:00:58.965Z,101231.72
2023-03-12T01:03:25.685Z,101227.31
2023-03-12T01:05:54.804Z,101227.34
2023-03-12T01:08:22.692Z,101224.75
2023-03-12T01:10:49.214Z,101218.50
2023-03-12T01:13:16.201Z,101204.41
2023-03-12T01:15:42.685Z,101191.19
2023-03-12T01:18:09.237Z,101200.97
2023-03-12T01:20:36.129Z,101200.16
2023-03-12T01:23:02.652Z,101193.91
2023-03-12T01:25:29.446Z,101194.78
2023-03-12T01:27:55.867Z,101199.22
2023-03-12T01:30:23.659Z,101200.09
2023-03-12T01:32:51.692Z,101201.81
2023-03-12T01:35:18.423Z,101207.09
2023-03-12T01:37:45.377Z,101207.06
2023-03-12T01:40:16.529Z,101208.91
2023-03-12T01:42:43.035Z,101205.41
2023-03-12T01:45:47.119Z,101199.25
2023-03-12T01:48:13.871Z,101193.06
2023-03-12T01:50:40.420Z,101191.13
2023-03-12T01:53:07.082Z,101194.53
2023-03-12T01:55:33.835Z,101194.34
2023-03-12T01:58:01.664Z,101183.56
2023-03-12T02:00:28.417Z,101179.94
2023-03-12T02:03:00.435Z,101181.63
2023-03-12T02:05:38.342Z,101173.53
2023-03-12T02:08:05.257Z,101173.41
2023-03-12T02:10:31.694Z,101170.66
2023-03-12T02:12:58.252Z,101165.28
2023-03-12T02:15:24.764Z,101162.50
2023-03-12T02:17:51.586Z,101156.25
2023-03-12T02:20:49.577Z,101150.91
2023-03-12T02:23:31.615Z,101147.31
2023-03-12T02:26:00.155Z,101143.66
2023-03-12T02:28:28.824Z,101132.13
2023-03-12T02:31:02.220Z,101140.00
2023-03-12T02:33:28.792Z,101138.25
2023-03-12T02:35:55.728Z,101130.13
2023-03-12T02:38:35.968Z,101128.22
2023-03-12T02:41:12.329Z,101128.16
2023-03-12T02:43:39.719Z,101112.25
2023-03-12T02:46:07.918Z,101116.66
2023-03-12T02:48:34.605Z,101121.06
2023-03-12T02:51:01.141Z,101119.25
2023-03-12T02:53:27.674Z,101110.47
2023-03-12T02:55:54.424Z,101111.31
2023-03-12T02:58:21.337Z,101102.53
2023-03-12T03:00:49.022Z,101088.22
2023-03-12T03:03:16.668Z,101093.41
2023-03-12T03:05:43.153Z,101088.97
2023-03-12T03:08:09.810Z,101086.31
2023-03-12T03:10:36.440Z,101082.66
2023-03-12T03:13:03.041Z,101071.09
2023-03-12T03:15:29.584Z,101058.63
2023-03-12T03:17:56.481Z,101074.59
2023-03-12T03:20:24.691Z,101076.38
2023-03-12T03:22:51.273Z,101067.56
2023-03-12T03:25:18.235Z,101070.22
2023-03-12T03:27:45.496Z,101069.34
2023-03-12T03:30:12.180Z,101058.69
2023-03-12T03:32:42.876Z,101052.38
2023-03-12T03:35:10.443Z,101043.38
2023-03-12T03:37:36.937Z,101036.22
2023-03-12T03:40:04.140Z,101029.13
2023-03-12T03:42:30.618Z,101031.66
2023-03-12T03:44:57.253Z,101035.97
2023-03-12T03:47:23.777Z,101028.78
2023-03-12T03:49:50.312Z,101022.53
2023-03-12T03:52:16.791Z,101011.00
2023-03-12T03:54:44.968Z,101003.78
2023-03-12T03:57:11.461Z,101005.53
2023-03-12T03:59:39.086Z,100992.16
2023-03-12T04:02:05.606Z,100994.81
2023-03-12T04:04:35.486Z,101008.97
2023-03-12T04:07:01.947Z,101021.38
2023-03-12T04:09:30.420Z,101009.84
2023-03-12T04:11:56.911Z,101012.53
2023-03-12T04:14:23.426Z,101005.41
2023-03-12T04:16:50.225Z,101010.75
2023-03-12T04:19:16.930Z,101018.66
2023-03-12T04:21:43.472Z,101014.22
2023-03-12T04:24:15.517Z,101011.59
2023-03-12T04:26:42.708Z,101001.81
2023-03-12T04:29:09.387Z,101002.63
2023-03-12T04:31:35.994Z,100992.72
2023-03-12T04:34:02.599Z,100991.66
2023-03-12T04:36:29.287Z,100998.63
2023-03-12T04:38:56.702Z,100995.91
2023-03-12T04:41:28.052Z,100991.44
2023-03-12T04:44:01.554Z,100984.34
2023-03-12T04:46:28.846Z,100971.94
2023-03-12T04:48:55.779Z,100975.53
2023-03-12T04:51:22.299Z,100965.94
2023-03-12T04:53:48.963Z,100959.09
2023-03-12T04:56:15.821Z,100958.34
2023-03-12T04:58:43.437Z,100945.16
2023-03-12T05:01:23.818Z,100935.53
2023-03-12T05:03:50.637Z,100923.19
2023-03-12T05:06:17.260Z,100918.88
2023-03-12T05:08:44.353Z,100919.78
2023-03-12T05:11:11.220Z,100914.50
2023-03-12T05:13:37.814Z,100911.91
2023-03-12T05:16:04.810Z,100911.91
2023-03-12T05:18:31.379Z,100910.06
2023-03-12T05:21:04.235Z,100910.06
2023-03-12T05:23:31.592Z,100901.06
2023-03-12T05:25:58.988Z,100897.56
2023-03-12T05:28:28.329Z,100899.28
2023-03-12T05:30:59.597Z,100906.38
2023-03-12T05:33:28.346Z,100899.28
2023-03-12T05:35:55.464Z,100898.38
2023-03-12T05:38:22.015Z,100898.25
2023-03-12T05:40:54.292Z,100900.09
2023-03-12T05:43:21.631Z,100903.66
2023-03-12T05:45:49.018Z,100890.28
2023-03-12T05:48:15.982Z,100885.75
2023-03-12T05:50:42.753Z,100890.97
2023-03-12T05:53:09.753Z,100883.78
2023-03-12T05:55:38.743Z,100878.28
2023-03-12T05:58:07.299Z,100877.25
2023-03-12T06:00:37.896Z,100868.38
2023-03-12T06:03:05.763Z,100877.88
2023-03-12T06:05:34.252Z,100873.38
2023-03-12T06:08:01.495Z,100880.38
2023-03-12T06:10:28.115Z,100877.66
2023-03-12T06:12:55.075Z,100879.38
2023-03-12T06:15:21.854Z,100878.56
2023-03-12T06:17:48.646Z,100874.03
2023-03-12T06:20:15.330Z,100882.09
2023-03-12T06:22:42.136Z,100881.28
2023-03-12T06:25:09.385Z,100887.56
2023-03-12T06:27:35.945Z,100879.56
2023-03-12T06:30:03.368Z,100882.28
2023-03-12T06:32:29.939Z,100871.63
2023-03-12T06:34:56.464Z,100875.19
2023-03-12T06:37:22.905Z,100873.44
2023-03-12T06:39:49.322Z,100862.78
2023-03-12T06:42:17.610Z,100870.75
2023-03-12T06:44:44.025Z,100860.06
2023-03-12T06:47:10.691Z,100863.47
2023-03-12T06:49:38.283Z,100861.88
2023-03-12T06:52:06.015Z,100859.38
2023-03-12T06:54:32.467Z,100853.22
2023-03-12T06:56:59.459Z,100847.00
2023-03-12T06:59:26.719Z,100840.88
2023-03-12T07:01:53.618Z,100837.25
2023-03-12T07:04:20.118Z,100836.41
2023-03-12T07:06:50.459Z,100831.91
2023-03-12T07:09:20.593Z,100825.56
2023-03-12T07:11:47.058Z,100828.16
2023-03-12T07:14:13.631Z,100815.00
2023-03-12T07:16:40.225Z,100805.16
2023-03-12T07:19:06.776Z,100791.78
2023-03-12T07:21:33.240Z,100805.81
2023-03-12T07:24:00.778Z,100807.53
2023-03-12T07:26:27.485Z,100811.97
2023-03-12T07:28:53.974Z,100811.88
2023-03-12T07:31:20.433Z,100813.53
2023-03-12T07:33:47.070Z,100805.56
2023-03-12T07:36:13.940Z,100812.56
2023-03-12T07:38:40.890Z,100816.94
2023-03-12T07:41:07.360Z,100826.66
2023-03-12T07:43:33.786Z,100831.88
2023-03-12T07:46:00.252Z,100847.72
2023-03-12T07:48:26.905Z,100852.09
2023-03-12T07:50:53.518Z,100838.72
2023-03-12T07:53:20.113Z,100857.28
2023-03-12T07:55:47.962Z,100842.06
2023-03-12T07:58:16.328Z,100849.06
2023-03-12T08:00:43.420Z,100845.38
2023-03-12T08:03:10.191Z,100852.34
2023-03-12T08:05:36.859Z,100849.53
2023-03-12T08:08:03.867Z,100841.34
2023-03-12T08:10:30.430Z,100831.28
2023-03-12T08:12:57.013Z,100832.97
2023-03-12T08:15:23.449Z,100823.94
2023-03-12T08:17:49.915Z,100822.91
2023-03-12T08:20:17.431Z,100822.69
2023-03-12T08:22:44.083Z,100822.69
2023-03-12T08:25:10.796Z,100820.81
2023-03-12T08:27:37.283Z,100824.28
2023-03-12T08:30:05.720Z,100832.06
2023-03-12T08:32:32.570Z,100827.41
2023-03-12T08:34:59.164Z,100823.59
2023-03-12T08:37:25.601Z,100826.84
2023-03-12T08:39:51.993Z,100828.31
2023-03-12T08:42:18.459Z,100826.31
2023-03-12T08:44:44.897Z,100818.09
2023-03-12T08:47:11.396Z,100833.88
2023-03-12T08:49:37.891Z,100824.88
2023-03-12T08:52:04.640Z,100825.59
2023-03-12T08:54:31.156Z,100817.25
2023-03-12T08:56:57.921Z,100833.75
2023-03-12T08:59:24.371Z,100826.47
2023-03-12T09:01:50.883Z,100831.53
2023-03-12T09:04:18.011Z,100834.84
2023-03-12T09:06:44.515Z,100829.13
2023-03-12T09:09:11.029Z,100831.31
2023-03-12T09:11:39.816Z,100836.13
2023-03-12T09:16:53.699Z,100827.38
2023-03-12T09:19:20.608Z,100819.91
2023-03-12T09:21:47.114Z,100812.09
2023-03-12T09:24:13.575Z,100806.13
2023-03-12T09:26:40.037Z,100809.59
2023-03-12T09:29:06.482Z,100816.66
2023-03-12T09:31:34.032Z,100798.66
2023-03-12T09:34:00.427Z,100797.69
2023-03-12T09:36:26.890Z,100801.34
2023-03-12T09:38:54.933Z,100814.16
2023-03-12T09:41:25.250Z,100813.00
2023-03-12T09:44:23.851Z,100806.47
2023-03-12T09:46:53.560Z,100817.00
2023-03-12T09:49:38.188Z,100814.06
2023-03-12T09:52:19.450Z,100810.19
2023-03-12T09:54:58.701Z,100818.81
2023-03-12T09:57:28.861Z,100815.81
2023-03-12T09:59:56.261Z,100812.78
2023-03-12T10:02:49.084Z,100815.72
2023-03-12T10:05:24.498Z,100821.81
2023-03-12T10:08:07.517Z,100815.41
2023-03-12T10:11:02.730Z,100818.59
2023-03-12T10:13:32.282Z,100821.88
2023-03-12T10:16:35.894Z,100818.41
2023-03-12T10:19:29.030Z,100822.06
2023-03-12T10:22:01.116Z,100823.16
2023-03-12T10:25:09.184Z,100814.00
2023-03-12T10:27:39.001Z,100809.72
2023-03-12T10:30:21.034Z,100802.47
2023-03-12T10:32:53.660Z,100811.22
2023-03-12T10:35:26.895Z,100812.75
2023-03-12T10:37:59.324Z,100813.25
2023-03-12T10:40:29.376Z,100815.59
2023-03-12T10:42:56.607Z,100812.94
2023-03-12T10:45:54.259Z,100816.88
2023-03-12T10:48:24.398Z,100810.31
2023-03-12T10:51:11.932Z,100805.72
2023-03-12T10:53:48.085Z,100807.63
2023-03-12T10:56:20.191Z,100807.72
2023-03-12T10:58:54.017Z,100803.31
2023-03-12T11:01:29.817Z,100815.25
2023-03-12T11:04:16.729Z,100801.09
2023-03-12T11:06:43.711Z,100799.59
2023-03-12T11:09:17.691Z,100808.47
2023-03-12T11:11:47.430Z,100804.22
2023-03-12T11:14:25.381Z,100805.03
2023-03-12T11:16:53.597Z,100806.66
2023-03-12T11:19:34.635Z,100817.19
2023-03-12T11:22:04.810Z,100812.63
2023-03-12T11:24:31.703Z,100819.13
2023-03-12T11:27:07.261Z,100821.16
2023-03-12T11:29:43.440Z,100825.97
2023-03-12T11:32:28.654Z,100834.41
2023-03-12T11:34:55.711Z,100831.19
2023-03-12T11:37:46.309Z,100833.38
2023-03-12T11:40:39.248Z,100822.00
2023-03-12T11:43:42.716Z,100823.84
2023-03-12T11:46:18.869Z,100824.16
2023-03-12T11:49:06.737Z,100823.66
2023-03-12T11:51:57.902Z,100825.06
2023-03-12T11:54:24.259Z,100821.59
2023-03-12T11:56:57.507Z,100813.63
2023-03-12T11:59:43.438Z,100807.19
2023-03-12T12:02:18.586Z,100810.84
2023-03-12T12:05:18.435Z,100795.59
2023-03-12T12:08:19.362Z,100798.50
2023-03-12T12:11:15.789Z,100789.59
2023-03-12T12:13:56.112Z,100784.81
2023-03-12T12:16:31.720Z,100791.00
2023-03-12T12:19:18.593Z,100790.03
2023-03-12T12:22:09.269Z,100798.00
2023-03-12T12:25:05.309Z,100794.97
2023-03-12T12:27:44.422Z,100794.00
2023-03-12T12:30:13.877Z,100791.75
2023-03-12T12:33:12.564Z,100770.84
2023-03-12T12:35:41.540Z,100767.47
2023-03-12T12:38:33.416Z,100763.00
2023-03-12T12:41:12.138Z,100763.72
2023-03-12T12:43:38.573Z,100767.84
2023-03-12T12:46:14.242Z,100778.25
2023-03-12T12:48:51.233Z,100783.59
2023-03-12T12:51:21.290Z,100775.09
2023-03-12T12:54:19.877Z,100773.03
2023-03-12T12:57:06.429Z,100768.41
2023-03-12T13:00:10.837Z,100754.44
2023-03-12T13:02:40.314Z,100746.19
2023-03-12T13:05:46.882Z,100766.53
2023-03-12T13:08:42.968Z,100751.16
2023-03-12T13:11:20.070Z,100744.13
2023-03-12T13:14:11.604Z,100733.94
2023-03-12T13:16:40.221Z,100737.25
2023-03-12T13:19:25.903Z,100735.13
2023-03-12T13:21:55.070Z,100748.97
2023-03-12T13:24:52.251Z,100756.56
2023-03-12T13:27:30.311Z,100748.06
2023-03-12T13:29:57.248Z,100751.16
2023-03-12T13:32:57.733Z,100753.00
2023-03-12T13:35:24.206Z,100739.34
2023-03-12T13:37:53.555Z,100742.16
2023-03-12T13:40:29.266Z,100755.97
2023-03-12T13:43:16.652Z,100746.38
2023-03-12T13:46:20.568Z,100745.88
2023-03-12T13:48:48.860Z,100762.16
2023-03-12T13:51:18.997Z,100772.09
2023-03-12T13:53:52.784Z,100767.53
2023-03-12T13:56:24.970Z,100762.50
2023-03-12T13:58:57.124Z,100764.88
2023-03-12T14:01:29.354Z,100752.59
2023-03-12T14:04:04.093Z,100757.75
2023-03-12T14:06:49.472Z,100768.59
2023-03-12T14:09:29.559Z,100750.34
2023-03-12T14:12:01.226Z,100752.78
2023-03-12T14:14:52.439Z,100755.09
2023-03-12T14:17:25.521Z,100766.28
2023-03-12T14:20:00.236Z,100767.19
2023-03-12T14:22:29.545Z,100761.91
2023-03-12T14:25:01.855Z,100781.22
2023-03-12T14:27:32.546Z,100778.88
2023-03-12T14:30:03.972Z,100797.91
2023-03-12T14:32:33.439Z,100798.25
2023-03-12T14:35:08.209Z,100800.47
2023-03-12T14:37:43.750Z,100802.19
2023-03-12T14:40:24.350Z,100797.03
2023-03-12T14:42:51.010Z,100795.94
2023-03-12T14:45:27.061Z,100791.75
2023-03-12T14:47:55.579Z,100795.59
2023-03-12T14:50:26.394Z,100789.94
2023-03-12T14:52:53.483Z,100796.56
2023-03-12T14:55:24.191Z,100799.50
2023-03-12T14:58:04.275Z,100800.63
2023-03-12T15:00:30.904Z,100801.22
2023-03-12T15:03:02.616Z,100805.16
2023-03-12T15:05:29.194Z,100796.75
2023-03-12T15:08:01.731Z,100798.13
2023-03-12T15:10:30.081Z,100795.03
2023-03-12T15:12:59.711Z,100806.41
2023-03-12T15:15:44.012Z,100809.34
2023-03-12T15:18:17.841Z,100800.06
2023-03-12T15:20:45.728Z,100796.25
2023-03-12T15:23:14.255Z,100794.03
2023-03-12T15:25:40.906Z,100795.75
2023-03-12T15:28:10.371Z,100792.03
2023-03-12T15:30:39.138Z,100786.13
2023-03-12T15:33:09.171Z,100788.53
2023-03-12T15:36:21.003Z,100782.63
2023-03-12T15:38:50.837Z,100775.75
2023-03-12T15:41:22.980Z,100772.41
2023-03-12T15:43:54.525Z,100771.84
2023-03-12T15:46:22.114Z,100774.06
2023-03-12T15:48:52.711Z,100776.88
2023-03-12T15:51:28.034Z,100778.00
2023-03-12T15:54:21.336Z,100763.69
2023-03-12T15:56:47.822Z,100765.59
2023-03-12T15:59:16.926Z,100763.59
2023-03-12T16:01:46.170Z,100769.97
2023-03-12T16:04:12.971Z,100778.28
2023-03-12T16:06:39.592Z,100774.84
2023-03-12T16:09:06.161Z,100772.25
2023-03-12T16:11:36.691Z,100785.63
2023-03-12T16:14:26.614Z,100768.81
2023-03-12T16:16:53.460Z,100758.38
2023-03-12T16:19:22.472Z,100754.72
2023-03-12T16:21:49.007Z,100743.41
2023-03-12T16:24:16.555Z,100754.38
2023-03-12T16:26:53.193Z,100763.56
2023-03-12T16:29:20.626Z,100762.06
2023-03-12T16:31:55.875Z,100757.78
2023-03-12T16:34:23.170Z,100755.31
2023-03-12T16:36:49.805Z,100756.38
2023-03-12T16:39:18.474Z,100752.94
2023-03-12T16:41:45.637Z,100746.91
2023-03-12T16:44:19.810Z,100746.19
2023-03-12T16:46:46.479Z,100746.25
2023-03-12T16:49:17.964Z,100739.28
2023-03-12T16:51:44.470Z,100738.53
2023-03-12T16:54:12.247Z,100737.03
2023-03-12T16:56:42.923Z,100757.09
2023-03-12T16:59:32.125Z,100754.63
2023-03-12T17:01:58.728Z,100753.00
2023-03-12T17:04:25.247Z,100763.06
2023-03-12T17:06:51.725Z,100753.22
2023-03-12T17:09:19.225Z,100758.84
2023-03-12T17:11:46.175Z,100756.91
2023-03-12T17:14:22.261Z,100773.19
2023-03-12T17:16:49.304Z,100769.63
2023-03-12T17:19:16.172Z,100776.97
2023-03-12T17:21:43.311Z,100780.00
2023-03-12T17:24:13.884Z,100789.13
2023-03-12T17:26:41.669Z,100773.09
2023-03-12T17:29:08.609Z,100767.28
2023-03-12T17:31:37.448Z,100765.88
2023-03-12T17:34:04.587Z,100758.03
2023-03-12T17:36:31.194Z,100773.41
2023-03-12T17:38:57.680Z,100781.63
2023-03-12T17:41:26.968Z,100773.97
2023-03-12T17:43:54.797Z,100772.34
2023-03-12T17:46:21.614Z,100776.03
2023-03-12T17:48:48.099Z,100783.22
2023-03-12T17:51:14.588Z,100788.63
2023-03-12T17:53:41.738Z,100778.94
2023-03-12T17:56:08.669Z,100788.94
2023-03-12T17:58:35.202Z,100780.97
2023-03-12T18:01:01.743Z,100800.47
2023-03-12T18:03:28.426Z,100789.72
2023-03-12T18:05:55.259Z,100794.34
2023-03-12T18:08:21.853Z,100784.56
2023-03-12T18:10:48.849Z,100789.94
2023-03-12T18:13:15.604Z,100783.56
2023-03-12T18:15:42.064Z,100777.19
2023-03-12T18:18:08.639Z,100777.41
2023-03-12T18:20:39.294Z,100777.41
2023-03-12T18:23:06.612Z,100783.47
2023-03-12T18:25:33.102Z,100792.28
2023-03-12T18:27:59.551Z,100781.63
2023-03-12T18:30:26.207Z,100793.16
2023-03-12T18:32:52.718Z,100786.69
2023-03-12T18:35:19.343Z,100783.78
2023-03-12T18:37:46.227Z,100784.41
2023-03-12T18:40:13.414Z,100779.78
2023-03-12T18:42:44.389Z,100781.84
2023-03-12T18:45:12.109Z,100779.03
2023-03-12T18:47:39.466Z,100768.91
2023-03-12T18:50:07.183Z,100790.22
2023-03-12T18:52:33.755Z,100780.56
2023-03-12T18:55:00.218Z,100780.66
2023-03-12T18:57:26.946Z,100772.34
2023-03-12T18:59:53.382Z,100771.59
2023-03-12T19:02:19.820Z,100778.91
2023-03-12T19:04:46.346Z,100776.03
2023-03-12T19:07:12.828Z,100771.72
2023-03-12T19:09:39.333Z,100767.31
2023-03-12T19:12:05.960Z,100782.72
2023-03-12T19:14:32.445Z,100776.56
2023-03-12T19:16:58.955Z,100778.50
2023-03-12T19:19:25.652Z,100770.88
2023-03-12T19:21:52.072Z,100770.97
2023-03-12T19:24:18.612Z,100766.44
2023-03-12T19:26:45.071Z,100762.03
2023-03-12T19:29:11.481Z,100755.47
2023-03-12T19:31:37.948Z,100751.78
2023-03-12T19:34:04.388Z,100737.69
2023-03-12T19:36:30.932Z,100742.19
2023-03-12T19:38:57.450Z,100733.94
2023-03-12T19:41:23.964Z,100734.75
2023-03-12T19:43:50.392Z,100742.53
2023-03-12T19:46:16.918Z,100745.00
2023-03-12T19:48:43.452Z,100743.25
2023-03-12T19:51:11.252Z,100739.63
2023-03-12T19:53:37.812Z,100739.38
2023-03-12T19:56:05.233Z,100740.16
2023-03-12T19:58:31.702Z,100733.03
2023-03-12T20:00:59.472Z,100735.72
2023-03-12T20:03:26.775Z,100733.03
2023-03-12T20:05:53.473Z,100724.22
2023-03-12T20:08:21.090Z,100717.09
2023-03-12T20:10:47.801Z,100720.66
2023-03-12T20:13:17.526Z,100723.56
2023-03-12T20:15:48.384Z,100718.19
2023-03-12T20:18:15.633Z,100712.81
2023-03-12T20:20:42.675Z,100702.13
2023-03-12T20:23:09.368Z,100691.38
2023-03-12T20:25:39.744Z,100685.97
2023-03-12T20:28:06.764Z,100679.09
2023-03-12T20:30:35.679Z,100673.06
2023-03-12T20:33:02.102Z,100677.56
2023-03-12T20:35:28.634Z,100674.81
2023-03-12T20:37:55.095Z,100671.22
2023-03-12T20:40:21.880Z,100672.19
2023-03-12T20:42:48.333Z,100662.50
2023-03-12T20:45:14.983Z,100668.97
2023-03-12T20:47:41.487Z,100667.03
2023-03-12T20:50:09.156Z,100651.75
2023-03-12T20:52:35.654Z,100652.63
2023-03-12T20:55:02.160Z,100649.38
2023-03-12T20:57:28.586Z,100655.63
2023-03-12T20:59:55.056Z,100656.50
2023-03-12T21:02:21.621Z,100653.78
2023-03-12T21:04:49.436Z,100643.03
2023-03-12T21:07:15.923Z,100639.34
2023-03-12T21:09:42.342Z,100636.66
2023-03-12T21:12:08.988Z,100636.66
2023-03-12T21:14:35.543Z,100634.84
2023-03-12T21:17:02.102Z,100624.94
2023-03-12T21:19:29.849Z,100618.69
2023-03-12T21:21:56.418Z,100616.00
2023-03-12T21:24:22.885Z,100613.41
2023-03-12T21:26:49.293Z,100604.56
2023-03-12T21:29:15.763Z,100605.56
2023-03-12T21:31:42.299Z,100592.84
2023-03-12T21:34:09.576Z,100587.66
2023-03-12T21:36:36.339Z,100599.41
2023-03-12T21:39:02.873Z,100584.13
2023-03-12T21:41:29.349Z,100578.88
2023-03-12T21:43:55.806Z,100576.19
2023-03-12T21:46:26.666Z,100563.66
2023-03-12T21:48:53.359Z,100551.94
2023-03-12T21:51:20.209Z,100555.59
2023-03-12T21:53:46.678Z,100547.53
2023-03-12T21:56:13.226Z,100538.72
2023-03-12T21:58:39.696Z,100533.34
2023-03-12T22:01:09.033Z,100522.66
2023-03-12T22:03:36.510Z,100528.28
2023-03-12T22:06:03.796Z,100517.75
2023-03-12T22:08:30.581Z,100506.22
2023-03-12T22:10:57.073Z,100508.06
2023-03-12T22:13:23.668Z,100494.81
2023-03-12T22:16:01.341Z,100495.91
2023-03-12T22:18:28.884Z,100494.94
2023-03-12T22:21:01.822Z,100483.34
2023-03-12T22:23:29.140Z,100488.72
2023-03-12T22:25:55.835Z,100484.06
2023-03-12T22:28:25.680Z,100470.81
2023-03-12T22:30:57.556Z,100472.66
2023-03-12T22:33:24.058Z,100463.75
2023-03-12T22:35:50.573Z,100474.38
2023-03-12T22:38:17.175Z,100457.59
2023-03-12T22:40:43.825Z,100457.84
2023-03-12T22:43:10.464Z,100458.78
2023-03-12T22:45:37.074Z,100444.69
2023-03-12T22:48:03.851Z,100446.78
2023-03-12T22:50:30.480Z,100450.56
2023-03-12T22:52:57.170Z,100457.75
2023-03-12T22:55:23.823Z,100447.09
2023-03-12T22:57:50.476Z,100445.63
2023-03-12T23:00:22.756Z,100442.81
2023-03-12T23:02:50.353Z,100441.09
2023-03-12T23:05:16.839Z,100435.00
2023-03-12T23:07:43.391Z,100419.06
2023-03-12T23:10:10.417Z,100421.03
2023-03-12T23:12:36.887Z,100410.25
2023-03-12T23:15:03.681Z,100413.78
2023-03-12T23:17:30.271Z,100406.69
2023-03-12T23:19:56.681Z,100403.13
2023-03-12T23:22:23.098Z,100387.25
2023-03-12T23:24:49.740Z,100389.94
2023-03-12T23:27:16.366Z,100381.00
2023-03-12T23:29:42.757Z,100370.47
2023-03-12T23:32:09.191Z,100370.59
2023-03-12T23:34:35.922Z,100357.38
2023-03-12T23:37:02.615Z,100336.94
2023-03-12T23:39:30.523Z,100338.03
2023-03-12T23:41:57.760Z,100328.34
2023-03-12T23:44:24.444Z,100319.56
2023-03-12T23:46:51.018Z,100305.25
2023-03-12T23:49:17.418Z,100304.50
2023-03-12T23:51:43.950Z,100290.06
2023-03-12T23:54:10.447Z,100284.69
2023-03-12T23:56:39.304Z,100282.00
2023-03-12T23:59:07.914Z,100286.31
